createdAt,value
2022-12-05T00:02:17.036Z,40.95
2022-12-05T00:05:29.021Z,42.23
2022-12-05T00:08:40.645Z,44.70
2022-12-05T00:11:54.034Z,41.90
2022-12-05T00:15:05.869Z,40.08
2022-12-05T00:18:17.582Z,38.38
2022-12-05T00:21:33.122Z,40.58
2022-12-05T00:24:47.076Z,40.35
2022-12-05T00:27:58.667Z,40.03
2022-12-05T00:31:12.623Z,41.90
2022-12-05T00:34:24.434Z,40.90
2022-12-05T00:37:36.433Z,36.45
2022-12-05T00:40:48.014Z,43.23
2022-12-05T00:44:02.654Z,38.08
2022-12-05T00:47:14.444Z,33.63
2022-12-05T00:50:26.251Z,38.78
2022-12-05T00:53:38.722Z,34.55
2022-12-05T00:56:52.513Z,34.75
2022-12-05T01:00:04.098Z,34.83
2022-12-05T01:03:15.805Z,31.03
2022-12-05T01:06:29.225Z,31.70
2022-12-05T01:09:40.819Z,29.63
2022-12-05T01:12:52.412Z,27.20
2022-12-05T01:16:04.325Z,29.78
2022-12-05T01:19:20.200Z,28.88
2022-12-05T01:22:31.775Z,28.23
2022-12-05T01:25:47.428Z,28.45
2022-12-05T01:28:59.759Z,29.73
2022-12-05T01:32:12.114Z,27.30
2022-12-05T01:35:24.145Z,28.28
2022-12-05T01:38:35.860Z,27.38
2022-12-05T01:41:51.927Z,28.75
2022-12-05T01:45:22.505Z,34.63
2022-12-05T01:48:39.078Z,32.35
2022-12-05T01:51:54.035Z,32.43
2022-12-05T01:55:11.641Z,30.10
2022-12-05T01:58:24.279Z,32.08
2022-12-05T02:01:36.013Z,32.53
2022-12-05T02:04:54.225Z,32.03
2022-12-05T02:08:09.748Z,30.60
2022-12-05T02:11:22.096Z,31.65
2022-12-05T02:14:39.565Z,30.45
2022-12-05T02:17:58.678Z,30.93
2022-12-05T02:21:29.978Z,33.23
2022-12-05T02:25:08.966Z,29.43
2022-12-05T02:28:40.362Z,31.75
2022-12-05T02:31:57.475Z,30.58
2022-12-05T02:35:17.007Z,32.23
2022-12-05T02:38:36.593Z,32.90
2022-12-05T02:41:55.847Z,31.08
2022-12-05T02:45:12.654Z,29.53
2022-12-05T02:48:24.860Z,31.53
2022-12-05T02:51:41.089Z,29.35
2022-12-05T02:54:58.037Z,28.73
2022-12-05T03:01:24.618Z,29.65
2022-12-05T03:04:37.792Z,30.48
2022-12-05T03:07:53.138Z,31.70
2022-12-05T03:11:08.347Z,31.00
2022-12-05T03:14:25.155Z,30.23
2022-12-05T03:17:41.879Z,27.75
2022-12-05T03:20:58.826Z,29.98
2022-12-05T03:24:15.961Z,29.33
2022-12-05T03:27:33.873Z,31.85
2022-12-05T03:30:47.607Z,26.95
2022-12-05T03:34:02.682Z,29.68
2022-12-05T03:37:21.046Z,28.35
2022-12-05T03:40:38.833Z,29.08
2022-12-05T03:43:57.362Z,28.20
2022-12-05T03:47:14.478Z,27.83
2022-12-05T03:50:31.179Z,28.68
2022-12-05T03:53:48.258Z,27.80
2022-12-05T04:00:19.767Z,33.25
2022-12-05T04:03:39.727Z,27.65
2022-12-05T04:06:55.175Z,26.50
2022-12-05T04:10:12.399Z,24.75
2022-12-05T04:13:29.290Z,28.95
2022-12-05T04:17:01.780Z,25.45
2022-12-05T04:20:34.416Z,25.45
2022-12-05T04:23:48.236Z,30.93
2022-12-05T04:27:08.975Z,28.65
2022-12-05T04:30:25.830Z,30.10
2022-12-05T04:33:44.646Z,27.40
2022-12-05T04:37:00.758Z,29.65
2022-12-05T04:40:21.498Z,29.40
2022-12-05T04:43:34.999Z,24.55
2022-12-05T04:46:49.448Z,32.78
2022-12-05T04:50:02.394Z,30.50
2022-12-05T04:53:14.951Z,32.73
2022-12-05T04:56:31.241Z,30.30
2022-12-05T04:59:43.379Z,32.63
2022-12-05T05:03:00.336Z,31.58
2022-12-05T05:09:22.322Z,31.55
2022-12-05T05:12:34.059Z,30.43
2022-12-05T05:15:45.730Z,33.50
2022-12-05T05:18:58.429Z,32.98
2022-12-05T05:22:10.174Z,31.98
2022-12-05T05:25:22.240Z,30.68
2022-12-05T05:28:33.875Z,32.78
2022-12-05T05:31:47.210Z,32.08
2022-12-05T05:34:58.948Z,36.65
2022-12-05T05:38:10.649Z,36.13
2022-12-05T05:41:25.065Z,38.08
2022-12-05T05:44:36.749Z,36.48
2022-12-05T05:47:49.236Z,37.20
2022-12-05T05:51:01.113Z,37.98
2022-12-05T05:54:13.376Z,36.28
2022-12-05T05:57:25.047Z,38.98
2022-12-05T06:00:36.804Z,38.73
2022-12-05T06:04:01.472Z,34.43
2022-12-05T06:07:13.320Z,35.38
2022-12-05T06:10:25.178Z,38.18
2022-12-05T06:13:37.055Z,43.78
2022-12-05T06:16:48.812Z,40.05
2022-12-05T06:20:00.755Z,38.55
2022-12-05T06:23:12.670Z,42.73
2022-12-05T06:26:26.810Z,37.93
2022-12-05T06:29:38.609Z,37.03
2022-12-05T06:32:50.696Z,38.25
2022-12-05T06:36:14.695Z,40.53
2022-12-05T06:39:26.533Z,37.90
2022-12-05T06:42:39.000Z,38.05
2022-12-05T06:45:50.726Z,43.20
2022-12-05T06:49:03.801Z,82.23
2022-12-05T06:52:16.227Z,63.98
2022-12-05T06:55:28.053Z,38.55
2022-12-05T06:58:39.733Z,37.68
2022-12-05T07:01:51.706Z,40.58
2022-12-05T07:05:04.703Z,40.18
2022-12-05T07:08:16.782Z,42.25
2022-12-05T07:11:28.863Z,80.75
2022-12-05T07:14:47.483Z,42.13
2022-12-05T07:17:54.417Z,40.78
2022-12-05T07:21:12.896Z,33.83
2022-12-05T07:24:22.769Z,35.13
2022-12-05T07:27:36.663Z,36.00
2022-12-05T07:30:48.550Z,42.05
2022-12-05T07:34:00.363Z,42.13
2022-12-05T07:37:13.978Z,37.23
2022-12-05T07:40:27.220Z,38.25
2022-12-05T07:43:39.422Z,39.05
2022-12-05T07:46:51.181Z,36.53
2022-12-05T07:50:02.922Z,80.08
2022-12-05T07:53:14.683Z,44.13
2022-12-05T07:56:27.094Z,44.78
2022-12-05T07:59:39.016Z,41.53
2022-12-05T08:02:51.180Z,40.25
2022-12-05T08:06:07.571Z,41.65
2022-12-05T08:09:19.653Z,40.30
2022-12-05T08:12:31.421Z,43.40
2022-12-05T08:15:43.591Z,39.35
2022-12-05T08:18:55.854Z,41.98
2022-12-05T08:22:07.792Z,66.20
2022-12-05T08:25:19.544Z,63.30
2022-12-05T08:28:31.237Z,40.68
2022-12-05T08:31:47.414Z,42.50
2022-12-05T08:34:59.499Z,41.23
2022-12-05T08:38:11.447Z,44.98
2022-12-05T08:41:26.132Z,41.88
2022-12-05T08:44:37.754Z,42.90
2022-12-05T08:47:49.448Z,39.45
2022-12-05T08:51:01.549Z,40.15
2022-12-05T08:54:13.869Z,48.75
2022-12-05T08:57:25.599Z,41.48
2022-12-05T09:00:37.557Z,50.73
2022-12-05T09:03:50.859Z,77.25
2022-12-05T09:07:02.877Z,42.15
2022-12-05T09:10:16.837Z,43.85
2022-12-05T09:13:28.552Z,44.70
2022-12-05T09:16:42.833Z,41.53
2022-12-05T09:19:58.196Z,39.50
2022-12-05T09:23:15.737Z,39.35
2022-12-05T09:26:28.262Z,37.83
2022-12-05T09:29:40.119Z,39.87
2022-12-05T09:32:51.912Z,43.95
2022-12-05T09:36:06.043Z,44.08
2022-12-05T09:39:18.914Z,44.15
2022-12-05T09:42:56.457Z,42.30
2022-12-05T09:46:14.576Z,37.48
2022-12-05T09:49:27.756Z,40.40
2022-12-05T09:52:45.365Z,39.88
2022-12-05T09:56:03.962Z,36.28
2022-12-05T09:59:20.974Z,40.25
2022-12-05T10:05:53.173Z,37.98
2022-12-05T10:12:35.010Z,63.95
2022-12-05T10:15:56.814Z,59.40
2022-12-05T10:19:10.466Z,43.30
2022-12-05T10:22:27.191Z,42.93
2022-12-05T10:25:40.397Z,39.60
2022-12-05T10:28:57.801Z,41.65
2022-12-05T10:32:17.109Z,37.78
2022-12-05T10:35:31.534Z,39.00
2022-12-05T10:38:43.935Z,39.00
2022-12-05T10:41:56.900Z,48.03
2022-12-05T10:45:15.087Z,41.55
2022-12-05T10:48:28.413Z,38.60
2022-12-05T10:51:40.810Z,132.90
2022-12-05T10:54:59.107Z,40.15
2022-12-05T10:58:23.172Z,41.25
2022-12-05T11:01:35.874Z,36.98
2022-12-05T11:04:51.284Z,34.20
2022-12-05T11:08:05.053Z,35.40
2022-12-05T11:11:28.462Z,31.25
2022-12-05T11:14:40.637Z,34.00
2022-12-05T11:17:54.527Z,29.25
2022-12-05T11:21:19.380Z,28.20
2022-12-05T11:24:36.096Z,33.45
2022-12-05T11:27:48.128Z,31.38
2022-12-05T11:31:08.713Z,31.70
2022-12-05T11:34:25.946Z,38.20
2022-12-05T11:37:42.912Z,35.65
2022-12-05T11:41:02.291Z,37.63
2022-12-05T11:44:34.347Z,34.75
2022-12-05T11:48:03.492Z,35.08
2022-12-05T11:51:28.204Z,36.68
2022-12-05T11:55:07.277Z,35.33
2022-12-05T11:58:45.128Z,31.18
2022-12-05T12:02:05.065Z,31.93
2022-12-05T12:05:24.182Z,32.03
2022-12-05T12:08:39.775Z,32.85
2022-12-05T12:11:57.002Z,35.13
2022-12-05T12:15:22.958Z,34.35
2022-12-05T12:19:03.930Z,29.95
2022-12-05T12:22:30.527Z,35.55
2022-12-05T12:25:49.381Z,36.90
2022-12-05T12:29:07.738Z,36.00
2022-12-05T12:32:29.904Z,36.85
2022-12-05T12:35:48.067Z,33.48
2022-12-05T12:39:18.605Z,31.15
2022-12-05T12:42:34.674Z,32.73
2022-12-05T12:46:11.323Z,36.45
2022-12-05T12:49:47.611Z,32.65
2022-12-05T12:53:16.490Z,34.73
2022-12-05T12:56:41.505Z,34.23
2022-12-05T13:00:06.144Z,36.70
2022-12-05T13:03:24.228Z,32.35
2022-12-05T13:06:39.978Z,32.28
2022-12-05T13:09:57.072Z,29.30
2022-12-05T13:13:11.943Z,48.63
2022-12-05T13:16:31.335Z,31.75
2022-12-05T13:19:49.275Z,29.78
2022-12-05T13:23:06.257Z,29.88
2022-12-05T13:26:19.125Z,28.10
2022-12-05T13:29:37.546Z,26.50
2022-12-05T13:32:49.702Z,35.03
2022-12-05T13:36:25.026Z,27.23
2022-12-05T13:39:51.653Z,28.65
2022-12-05T13:43:10.637Z,27.65
2022-12-05T13:46:31.626Z,28.10
2022-12-05T13:49:51.516Z,29.38
2022-12-05T13:53:08.733Z,30.48
2022-12-05T14:00:14.725Z,29.38
2022-12-05T14:04:04.252Z,27.58
2022-12-05T14:07:18.752Z,32.98
2022-12-05T14:10:57.030Z,52.20
2022-12-05T14:14:11.142Z,32.38
2022-12-05T14:17:23.422Z,30.68
2022-12-05T14:20:47.521Z,28.35
2022-12-05T14:24:13.760Z,24.28
2022-12-05T14:27:32.388Z,31.73
2022-12-05T14:30:52.207Z,80.63
2022-12-05T14:34:28.419Z,33.13
2022-12-05T14:37:49.696Z,34.18
2022-12-05T14:41:06.480Z,27.98
2022-12-05T14:44:22.452Z,24.05
2022-12-05T14:47:38.281Z,30.83
2022-12-05T14:50:54.068Z,30.93
2022-12-05T14:54:12.361Z,30.13
2022-12-05T14:57:25.605Z,29.93
2022-12-05T15:00:37.934Z,31.10
2022-12-05T15:04:09.660Z,31.70
2022-12-05T15:07:25.519Z,37.45
2022-12-05T15:10:41.042Z,33.23
2022-12-05T15:13:52.990Z,32.25
2022-12-05T15:17:08.383Z,30.10
2022-12-05T15:20:28.167Z,32.33
2022-12-05T15:23:49.736Z,33.98
2022-12-05T15:27:03.871Z,34.83
2022-12-05T15:30:23.665Z,33.73
2022-12-05T15:33:36.046Z,31.50
2022-12-05T15:36:53.926Z,31.48
2022-12-05T15:40:14.397Z,36.50
2022-12-05T15:43:38.127Z,36.13
2022-12-05T15:46:49.858Z,34.88
2022-12-05T15:50:01.620Z,34.00
2022-12-05T15:53:17.403Z,35.48
2022-12-05T15:56:34.168Z,36.25
2022-12-05T15:59:49.892Z,37.48
2022-12-05T16:03:07.142Z,37.50
2022-12-05T16:06:24.147Z,33.23
2022-12-05T16:09:41.635Z,42.95
2022-12-05T16:12:54.852Z,35.15
2022-12-05T16:16:07.072Z,39.88
2022-12-05T16:19:27.257Z,39.20
2022-12-05T16:22:39.518Z,44.38
2022-12-05T16:25:52.187Z,44.60
2022-12-05T16:29:09.525Z,52.70
2022-12-05T16:32:29.079Z,61.63
2022-12-05T16:35:45.495Z,61.28
2022-12-05T16:39:05.422Z,60.80
2022-12-05T16:42:32.013Z,71.53
2022-12-05T16:45:49.915Z,68.63
2022-12-05T16:49:30.731Z,73.18
2022-12-05T16:52:42.892Z,74.33
2022-12-05T16:55:55.492Z,71.03
2022-12-05T16:59:10.346Z,74.50
2022-12-05T17:02:24.161Z,78.13
2022-12-05T17:05:36.341Z,76.03
2022-12-05T17:08:48.574Z,75.78
2022-12-05T17:12:04.458Z,72.23
2022-12-05T17:15:22.595Z,71.88
2022-12-05T17:18:34.688Z,80.98
2022-12-05T17:21:48.879Z,82.17
2022-12-05T17:25:00.977Z,73.53
2022-12-05T17:28:12.943Z,74.40
2022-12-05T17:31:26.821Z,75.10
2022-12-05T17:34:38.706Z,73.90
2022-12-05T17:37:50.778Z,75.13
2022-12-05T17:41:07.224Z,72.35
2022-12-05T17:44:21.738Z,75.65
2022-12-05T17:47:33.525Z,74.83
2022-12-05T17:50:49.291Z,72.65
2022-12-05T17:54:01.452Z,86.98
2022-12-05T17:57:13.262Z,75.65
2022-12-05T18:00:28.049Z,79.93
2022-12-05T18:03:39.975Z,74.55
2022-12-05T18:06:51.744Z,82.53
2022-12-05T18:10:08.245Z,79.65
2022-12-05T18:13:19.039Z,78.95
2022-12-05T18:16:31.094Z,76.15
2022-12-05T18:19:43.151Z,69.53
2022-12-05T18:22:55.232Z,73.80
2022-12-05T18:26:08.679Z,79.18
2022-12-05T18:29:20.635Z,79.85
2022-12-05T18:32:32.545Z,79.23
2022-12-05T18:35:47.402Z,73.13
2022-12-05T18:39:01.453Z,77.00
2022-12-05T18:42:15.441Z,83.35
2022-12-05T18:45:27.398Z,79.65
2022-12-05T18:48:44.828Z,72.73
2022-12-05T18:51:56.467Z,74.10
2022-12-05T18:55:17.175Z,72.38
2022-12-05T18:58:22.199Z,81.45
2022-12-05T19:01:35.062Z,79.95
2022-12-05T19:04:46.982Z,74.68
2022-12-05T19:08:01.948Z,76.35
2022-12-05T19:11:14.256Z,73.13
2022-12-05T19:14:26.914Z,75.95
2022-12-05T19:17:39.995Z,83.38
2022-12-05T19:20:57.947Z,77.68
2022-12-05T19:24:13.090Z,78.90
2022-12-05T19:27:24.737Z,79.58
2022-12-05T19:30:36.474Z,87.38
2022-12-05T19:33:51.382Z,82.20
2022-12-05T19:37:03.250Z,74.38
2022-12-05T19:40:17.785Z,77.73
2022-12-05T19:43:29.811Z,80.75
2022-12-05T19:46:42.621Z,84.90
2022-12-05T19:49:54.803Z,82.93
2022-12-05T19:53:06.467Z,77.95
2022-12-05T19:56:22.055Z,78.20
2022-12-05T19:59:33.946Z,71.33
2022-12-05T20:02:45.995Z,89.53
2022-12-05T20:06:05.356Z,80.05
2022-12-05T20:09:20.289Z,85.35
2022-12-05T20:12:32.306Z,79.20
2022-12-05T20:15:43.984Z,80.38
2022-12-05T20:18:58.030Z,82.35
2022-12-05T20:22:09.812Z,80.78
2022-12-05T20:25:21.852Z,79.23
2022-12-05T20:28:33.632Z,79.30
2022-12-05T20:31:48.619Z,78.45
2022-12-05T20:35:00.354Z,83.55
2022-12-05T20:38:12.314Z,83.55
2022-12-05T20:41:25.211Z,83.90
2022-12-05T20:44:37.930Z,85.55
2022-12-05T20:47:51.303Z,83.60
2022-12-05T20:51:09.186Z,88.20
2022-12-05T20:54:21.728Z,87.90
2022-12-05T20:57:33.843Z,85.18
2022-12-05T21:00:45.585Z,88.95
2022-12-05T21:03:59.120Z,88.60
2022-12-05T21:07:11.028Z,82.63
2022-12-05T21:10:22.916Z,88.65
2022-12-05T21:13:34.977Z,92.17
2022-12-05T21:16:47.252Z,85.88
2022-12-05T21:19:59.211Z,91.80
2022-12-05T21:23:11.371Z,92.00
2022-12-05T21:26:25.161Z,92.65
2022-12-05T21:29:36.909Z,91.93
2022-12-05T21:32:48.633Z,91.85
2022-12-05T21:36:03.012Z,95.38
2022-12-05T21:39:15.675Z,91.08
2022-12-05T21:42:27.417Z,93.30
2022-12-05T21:45:44.281Z,95.58
2022-12-05T21:48:55.129Z,100.18
2022-12-05T21:52:06.844Z,88.58
2022-12-05T21:55:18.727Z,87.00
2022-12-05T21:58:31.694Z,90.33
2022-12-05T22:01:44.315Z,92.75
2022-12-05T22:04:56.306Z,93.50
2022-12-05T22:08:08.132Z,94.05
2022-12-05T22:11:22.445Z,89.78
2022-12-05T22:14:34.135Z,99.50
2022-12-05T22:17:45.814Z,96.38
2022-12-05T22:21:04.273Z,94.73
2022-12-05T22:24:16.153Z,85.18
2022-12-05T22:27:27.970Z,85.80
2022-12-05T22:30:39.696Z,87.03
2022-12-05T22:33:52.154Z,97.93
2022-12-05T22:37:03.895Z,87.60
2022-12-05T22:40:17.868Z,81.53
2022-12-05T22:43:31.572Z,85.83
2022-12-05T22:46:43.365Z,87.53
2022-12-05T22:49:55.250Z,94.55
2022-12-05T22:53:06.943Z,92.25
2022-12-05T22:56:21.003Z,83.28
2022-12-05T22:59:32.722Z,77.93
2022-12-05T23:02:44.400Z,87.45
2022-12-05T23:05:56.331Z,92.80
2022-12-05T23:09:09.599Z,90.53
2022-12-05T23:12:21.478Z,82.78
2022-12-05T23:15:33.160Z,89.80
2022-12-05T23:18:53.563Z,93.70
2022-12-05T23:22:05.260Z,91.68
2022-12-05T23:25:17.017Z,83.35
2022-12-05T23:28:28.741Z,87.05
2022-12-05T23:31:40.674Z,87.05
2022-12-05T23:34:52.591Z,93.80
2022-12-05T23:38:04.495Z,88.78
2022-12-05T23:41:20.904Z,87.05
2022-12-05T23:44:32.611Z,83.05
2022-12-05T23:47:44.460Z,92.13
2022-12-05T23:51:07.544Z,86.00
2022-12-05T23:54:19.718Z,102.50
2022-12-05T23:57:31.515Z,102.28
